»·PEaware :: N512LD KPRB-KBUR

N512LD :: KPRB-KBUR

FLIGHT INFORMATION

Flight Status: Arrived
Operator: Privately registered:
United States
More flights under this callsign
Pilot: Slade E. (12022)
Aircraft: BEECH AIRCRAFT BONANZA
(BE35)
More flights by this aircraft type
Origin: KPRB Paso Robles Mun
United States
Destination: KBUR Bob Hope-Burbank
United States
More flights between these airports :: More routes between these airports
Route: V25 RZS V597 FIM
File this flight plan on PilotEdge
Remarks:
Altitude:
(Current/Filed)
7,500ft
Speed:
(Current/Filed)
160kts
Departed: 12-Aug-17 08:02 PM
Arrived: 12-Aug-17 09:04 PM
Distance/Time
Traveled:
142nm/1:02
Distance/Time
To Go:
Arrived

Flight Plot

Page will automatically refresh every two minutes.

Flight plan parsing failed; only flown route is shown


Map Options




Map Legend


Flown Route
Filed Route
Departure Airport
Arrival Airport
Navaid (VOR, NDB)
Fix

Horizontal Profiles

Position Reports

Time Latitude Longitude Heading Altitude Ground
Speed
12-Aug-17 20:04 35.669302 -120.619721 323 839ft 56kts
12-Aug-17 20:05 35.687307 -120.634683 314 1642ft 83kts
12-Aug-17 20:06 35.669307 -120.640383 149 2535ft 118kts
12-Aug-17 20:07 35.646580 -120.611694 106 3325ft 118kts
12-Aug-17 20:08 35.619741 -120.587423 155 4041ft 123kts
12-Aug-17 20:09 35.589525 -120.567749 156 4871ft 112kts
12-Aug-17 20:10 35.560166 -120.548290 155 5418ft 123kts
12-Aug-17 20:11 35.530138 -120.526735 152 6025ft 124kts
12-Aug-17 20:12 35.501220 -120.502257 144 6676ft 127kts
12-Aug-17 20:13 35.472524 -120.477940 152 7291ft 129kts
12-Aug-17 20:14 35.438395 -120.455038 154 7455ft 154kts
12-Aug-17 20:15 35.398873 -120.429298 154 7516ft 165kts
12-Aug-17 20:16 35.358581 -120.400318 148 7598ft 170kts
12-Aug-17 20:17 35.318620 -120.367588 149 7632ft 175kts
12-Aug-17 20:18 35.277096 -120.334549 151 7564ft 180kts
12-Aug-17 20:19 35.234703 -120.302162 150 7550ft 178kts
12-Aug-17 20:20 35.192424 -120.270135 150 7555ft 177kts
12-Aug-17 20:22 35.151351 -120.237942 148 7625ft 175kts
12-Aug-17 20:23 35.111328 -120.202554 145 7595ft 177kts
12-Aug-17 20:24 35.072230 -120.165791 144 7607ft 177kts
12-Aug-17 20:25 35.031159 -120.132191 151 7604ft 177kts
12-Aug-17 20:26 34.989455 -120.099094 147 7518ft 181kts
12-Aug-17 20:27 34.948526 -120.063593 148 7434ft 180kts
12-Aug-17 20:28 34.906242 -120.032150 152 7448ft 174kts
12-Aug-17 20:29 34.864393 -120.004610 156 7459ft 174kts
12-Aug-17 20:30 34.822032 -119.978513 154 7651ft 164kts
12-Aug-17 20:31 34.778047 -119.955933 160 7525ft 173kts
12-Aug-17 20:32 34.735118 -119.928729 152 7527ft 174kts
12-Aug-17 20:33 34.693226 -119.900296 154 7540ft 173kts
12-Aug-17 20:34 34.649895 -119.873542 154 7468ft 177kts
12-Aug-17 20:35 34.608204 -119.845030 151 7434ft 177kts
12-Aug-17 20:36 34.566903 -119.814664 150 7364ft 178kts
12-Aug-17 20:37 34.525329 -119.782608 149 7414ft 172kts
12-Aug-17 20:38 34.502687 -119.734968 101 7542ft 171kts
12-Aug-17 20:39 34.493167 -119.677334 101 7549ft 174kts
12-Aug-17 20:40 34.485074 -119.619144 98 7556ft 176kts
12-Aug-17 20:41 34.474858 -119.561032 107 7572ft 175kts
12-Aug-17 20:42 34.464024 -119.503144 101 7578ft 176kts
12-Aug-17 20:43 34.453845 -119.444705 100 7533ft 180kts
12-Aug-17 20:44 34.445536 -119.384703 100 7514ft 178kts
12-Aug-17 20:45 34.437633 -119.328461 101 7489ft 179kts
12-Aug-17 20:46 34.427631 -119.269525 102 7492ft 177kts
12-Aug-17 20:47 34.416226 -119.211214 103 7445ft 179kts
12-Aug-17 20:48 34.403200 -119.153312 105 7501ft 174kts
12-Aug-17 20:49 34.391513 -119.097214 104 7612ft 170kts
12-Aug-17 20:50 34.380575 -119.039273 104 7473ft 180kts
12-Aug-17 20:51 34.369121 -118.980297 102 7465ft 177kts
12-Aug-17 20:52 34.361989 -118.921555 95 7556ft 172kts
12-Aug-17 20:52 34.358184 -118.873824 103 7581ft 174kts
12-Aug-17 20:53 34.343856 -118.817691 107 7569ft 177kts
12-Aug-17 20:55 34.338050 -118.746761 91 7414ft 181kts
12-Aug-17 20:56 34.338235 -118.684612 90 7176ft 188kts
12-Aug-17 20:56 34.335345 -118.632693 97 6708ft 184kts
12-Aug-17 20:57 34.330923 -118.571472 94 5939ft 180kts
12-Aug-17 20:58 34.330057 -118.514732 93 5193ft 158kts
12-Aug-17 20:59 34.329275 -118.464236 94 3950ft 143kts
12-Aug-17 21:00 34.323021 -118.426567 121 3254ft 98kts
12-Aug-17 21:01 34.309929 -118.403236 124 3079ft 77kts
12-Aug-17 21:02 34.293370 -118.385854 154 3115ft 80kts
12-Aug-17 21:03 34.272898 -118.377636 161 2910ft 73kts
12-Aug-17 21:04 34.252727 -118.371735 162 2150ft 75kts
12-Aug-17 21:05 34.232708 -118.366073 164 1458ft 72kts
12-Aug-17 21:06 34.213130 -118.360613 163 860ft 69kts
12-Aug-17 21:07 34.200027 -118.356971 170 780ft 23kts
12-Aug-17 21:08 34.198867 -118.358705 269 780ft 7kts
12-Aug-17 21:09 34.199043 -118.364555 273 780ft 17kts
12-Aug-17 21:10 34.200311 -118.364744 90 780ft 0kts
12-Aug-17 21:11 34.200311 -118.364744 90 780ft 0kts
12-Aug-17 21:12 34.200311 -118.364744 90 780ft 0kts
12-Aug-17 21:13 34.200311 -118.364744 90 780ft 0kts
12-Aug-17 21:14 34.200311 -118.364744 90 780ft 0kts
12-Aug-17 21:15 34.200311 -118.364744 90 780ft 0kts
12-Aug-17 21:16 34.200311 -118.364744 90 780ft 0kts
12-Aug-17 21:17 34.200311 -118.364744 90 780ft 0kts
12-Aug-17 21:18 34.200311 -118.364744 90 780ft 0kts
12-Aug-17 21:19 34.200311 -118.364744 90 780ft 0kts
12-Aug-17 21:20 34.200311 -118.364744 90 780ft 0kts
12-Aug-17 21:21 34.200311 -118.364744 90 780ft 0kts
12-Aug-17 21:22 34.200311 -118.364744 90 780ft 0kts

Navigation Log

Ident Type
Flight plan parsing failed, navigation log unavailable